Time;durP1;ratioP1;P1;durP2;ratioP2;P2;SDS_P1;SDS_P2;PMS_P1;PMS_P2;Temp;Humidity;BMP_temperature;BMP_pressure;BME280_temperature;BME280_humidity;BME280_pressure;Samples;Min_cycle;Max_cycle;Signal;HPM_P1;HPM_P2
2019/06/02 00:01:53;;;;;;;0.8;0.8;;;;;;;26.44;38.15625;1005.472;;;;
2019/06/02 00:04:18;;;;;;;0.7;0.7;;;;;;;26.44;38.16895;1005.51;;;;
2019/06/02 00:06:43;;;;;;;0.8;0.8;;;;;;;26.43;38.17969;1005.464;;;;
2019/06/02 00:09:08;;;;;;;0.8;0.8;;;;;;;26.43;38.19238;1005.478;;;;
2019/06/02 00:11:33;;;;;;;0.8;0.8;;;;;;;26.43;38.21582;1005.483;;;;
2019/06/02 00:13:58;;;;;;;0.7;0.7;;;;;;;26.43;38.21582;1005.509;;;;
2019/06/02 00:16:23;;;;;;;0.7;0.7;;;;;;;26.42;38.22754;1005.501;;;;
2019/06/02 00:18:48;;;;;;;0.8;0.8;;;;;;;26.42;38.22754;1005.525;;;;
2019/06/02 00:21:13;;;;;;;0.9;0.9;;;;;;;26.42;38.23926;1005.515;;;;
2019/06/02 00:23:48;;;;;;;1.1;1;;;;;;;26.41;38.2627;1005.521;;;;
2019/06/02 00:26:13;;;;;;;0.7;0.7;;;;;;;26.41;38.26172;1005.492;;;;
2019/06/02 00:28:38;;;;;;;0.7;0.7;;;;;;;26.41;38.26172;1005.495;;;;
2019/06/02 00:31:03;;;;;;;0.8;0.8;;;;;;;26.4;38.27441;1005.486;;;;
2019/06/02 00:33:28;;;;;;;1.6;0.8;;;;;;;26.4;38.29785;1005.457;;;;
2019/06/02 00:35:55;;;;;;;0.7;0.7;;;;;;;26.39;38.30762;1005.433;;;;
2019/06/02 00:38:20;;;;;;;0.9;0.9;;;;;;;26.39;38.30762;1005.466;;;;
2019/06/02 00:40:45;;;;;;;1;0.9;;;;;;;26.38;38.30762;1005.494;;;;
2019/06/02 00:43:16;;;;;;;1.2;0.8;;;;;;;26.38;38.31934;1005.467;;;;
2019/06/02 00:45:49;;;;;;;0.7;0.7;;;;;;;26.38;38.33203;1005.474;;;;
2019/06/02 00:48:21;;;;;;;0.9;0.9;;;;;;;26.37;38.34277;1005.441;;;;
2019/06/02 00:50:46;;;;;;;0.8;0.8;;;;;;;26.36;38.34277;1005.421;;;;
2019/06/02 00:53:11;;;;;;;0.8;0.8;;;;;;;26.36;38.35449;1005.408;;;;
2019/06/02 00:55:36;;;;;;;0.9;0.9;;;;;;;26.36;38.36523;1005.419;;;;
2019/06/02 00:58:13;;;;;;;0.8;0.8;;;;;;;26.36;38.36523;1005.391;;;;
2019/06/02 01:00:38;;;;;;;0.9;0.9;;;;;;;26.35;38.36523;1005.345;;;;
2019/06/02 01:03:03;;;;;;;1.3;1;;;;;;;26.35;38.37793;1005.366;;;;
2019/06/02 01:05:44;;;;;;;0.8;0.8;;;;;;;26.34;38.40137;1005.367;;;;
2019/06/02 01:08:09;;;;;;;0.8;0.8;;;;;;;26.34;38.41211;1005.368;;;;
2019/06/02 01:10:45;;;;;;;0.9;0.9;;;;;;;26.34;38.40039;1005.356;;;;
2019/06/02 01:13:10;;;;;;;0.7;0.7;;;;;;;26.34;38.42383;1005.348;;;;
2019/06/02 01:15:35;;;;;;;0.8;0.8;;;;;;;26.33;38.43555;1005.337;;;;
2019/06/02 01:18:02;;;;;;;0.8;0.8;;;;;;;26.33;38.44727;1005.381;;;;
2019/06/02 01:20:27;;;;;;;0.7;0.7;;;;;;;26.32;38.44727;1005.291;;;;
2019/06/02 01:23:06;;;;;;;0.9;0.9;;;;;;;26.32;38.45898;1005.309;;;;
2019/06/02 01:25:31;;;;;;;0.8;0.8;;;;;;;26.32;38.45898;1005.296;;;;
2019/06/02 01:28:09;;;;;;;1;0.9;;;;;;;26.32;38.4707;1005.296;;;;
2019/06/02 01:30:37;;;;;;;0.9;0.8;;;;;;;26.31;38.46973;1005.267;;;;
2019/06/02 01:33:14;;;;;;;0.8;0.8;;;;;;;26.3;38.46875;1005.219;;;;
2019/06/02 01:35:40;;;;;;;0.9;0.8;;;;;;;26.3;38.48145;1005.25;;;;
2019/06/02 01:38:22;;;;;;;0.8;0.8;;;;;;;26.3;38.50488;1005.236;;;;
2019/06/02 01:40:50;;;;;;;0.8;0.8;;;;;;;26.3;38.50488;1005.235;;;;
2019/06/02 01:43:16;;;;;;;0.9;0.9;;;;;;;26.3;38.51758;1005.208;;;;
2019/06/02 01:45:41;;;;;;;0.8;0.8;;;;;;;26.29;38.5166;1005.172;;;;
2019/06/02 01:48:06;;;;;;;0.8;0.8;;;;;;;26.28;38.51563;1005.182;;;;
2019/06/02 01:50:32;;;;;;;0.8;0.8;;;;;;;26.28;38.52734;1005.157;;;;
2019/06/02 01:52:57;;;;;;;0.8;0.8;;;;;;;26.28;38.54004;1005.155;;;;
2019/06/02 01:55:22;;;;;;;0.9;0.9;;;;;;;26.28;38.52734;1005.188;;;;
2019/06/02 01:57:47;;;;;;;0.8;0.8;;;;;;;26.27;38.55078;1005.178;;;;
2019/06/02 02:00:12;;;;;;;0.9;0.9;;;;;;;26.27;38.55078;1005.183;;;;
2019/06/02 02:02:37;;;;;;;1.1;1;;;;;;;26.27;38.55078;1005.171;;;;
2019/06/02 02:05:02;;;;;;;0.9;0.9;;;;;;;26.26;38.5625;1005.185;;;;
2019/06/02 02:07:27;;;;;;;0.9;0.9;;;;;;;26.26;38.58594;1005.168;;;;
2019/06/02 02:09:53;;;;;;;0.8;0.8;;;;;;;26.25;38.58594;1005.185;;;;
2019/06/02 02:12:18;;;;;;;0.9;0.8;;;;;;;26.26;38.58594;1005.15;;;;
2019/06/02 02:14:43;;;;;;;0.9;0.9;;;;;;;26.25;38.57324;1005.112;;;;
2019/06/02 02:17:08;;;;;;;0.7;0.7;;;;;;;26.25;38.59668;1005.122;;;;
2019/06/02 02:19:43;;;;;;;0.8;0.8;;;;;;;26.24;38.62109;1005.05;;;;
2019/06/02 02:22:19;;;;;;;1.1;1.1;;;;;;;26.24;38.59668;1005.065;;;;
2019/06/02 02:24:51;;;;;;;0.9;0.9;;;;;;;26.24;38.6084;1005.069;;;;
2019/06/02 02:27:16;;;;;;;1;0.9;;;;;;;26.24;38.62012;1005.037;;;;
2019/06/02 02:29:58;;;;;;;1.8;0.9;;;;;;;26.24;38.63184;1004.996;;;;
2019/06/02 02:32:31;;;;;;;0.9;0.9;;;;;;;26.23;38.63184;1005.029;;;;
2019/06/02 02:34:56;;;;;;;0.9;0.9;;;;;;;26.23;38.63086;1005.031;;;;
2019/06/02 02:37:22;;;;;;;0.7;0.7;;;;;;;26.22;38.66699;1005.031;;;;
2019/06/02 02:39:47;;;;;;;0.8;0.7;;;;;;;26.21;38.6543;1005.005;;;;
2019/06/02 02:42:12;;;;;;;1;0.7;;;;;;;26.21;38.6543;1005.023;;;;
2019/06/02 02:44:37;;;;;;;0.7;0.7;;;;;;;26.2;38.66504;1005.051;;;;
2019/06/02 02:47:02;;;;;;;0.8;0.7;;;;;;;26.2;38.67676;1005.005;;;;
2019/06/02 02:49:27;;;;;;;0.7;0.7;;;;;;;26.2;38.67676;1004.989;;;;
2019/06/02 02:51:52;;;;;;;1.1;0.8;;;;;;;26.2;38.70117;1004.999;;;;
2019/06/02 02:54:18;;;;;;;0.9;0.9;;;;;;;26.19;38.71289;1005.01;;;;
2019/06/02 02:56:43;;;;;;;1;1;;;;;;;26.19;38.71289;1004.936;;;;
2019/06/02 02:59:08;;;;;;;0.9;0.9;;;;;;;26.19;38.72363;1005.027;;;;
2019/06/02 03:01:33;;;;;;;0.9;0.9;;;;;;;26.19;38.71289;1004.986;;;;
2019/06/02 03:03:59;;;;;;;0.9;0.8;;;;;;;26.19;38.71191;1005.023;;;;
2019/06/02 03:06:24;;;;;;;0.9;0.9;;;;;;;26.18;38.72363;1004.992;;;;
2019/06/02 03:08:49;;;;;;;0.9;0.9;;;;;;;26.18;38.73535;1005.022;;;;
2019/06/02 03:11:14;;;;;;;1.2;1.1;;;;;;;26.18;38.73535;1005.023;;;;
2019/06/02 03:13:39;;;;;;;0.8;0.8;;;;;;;26.18;38.73535;1004.972;;;;
2019/06/02 03:16:04;;;;;;;1;0.9;;;;;;;26.17;38.74609;1004.985;;;;
2019/06/02 03:18:29;;;;;;;0.7;0.7;;;;;;;26.16;38.74512;1004.99;;;;
2019/06/02 03:20:59;;;;;;;1;0.9;;;;;;;26.16;38.73438;1004.965;;;;
2019/06/02 03:23:26;;;;;;;0.9;0.9;;;;;;;26.16;38.73438;1005.002;;;;
2019/06/02 03:25:52;;;;;;;1;1;;;;;;;26.16;38.74609;1005.03;;;;
2019/06/02 03:28:25;;;;;;;0.8;0.8;;;;;;;26.16;38.75781;1005.034;;;;
2019/06/02 03:30:50;;;;;;;0.8;0.8;;;;;;;26.16;38.74609;1005.032;;;;
2019/06/02 03:33:26;;;;;;;1;0.9;;;;;;;26.17;38.73438;1005.052;;;;
2019/06/02 03:35:51;;;;;;;1.1;1;;;;;;;26.15;38.74512;1005.04;;;;
2019/06/02 03:38:29;;;;;;;0.9;0.9;;;;;;;26.16;38.7334;1005.054;;;;
2019/06/02 03:41:12;;;;;;;1.3;1.2;;;;;;;26.17;38.72168;1005.022;;;;
2019/06/02 03:43:42;;;;;;;1.1;1;;;;;;;26.16;38.72168;1005.04;;;;
2019/06/02 03:46:13;;;;;;;0.7;0.7;;;;;;;26.17;38.70996;1005.076;;;;
2019/06/02 03:48:39;;;;;;;0.9;0.9;;;;;;;26.18;38.69922;1005.084;;;;
2019/06/02 03:51:04;;;;;;;1.6;1;;;;;;;26.17;38.70996;1005.06;;;;
2019/06/02 03:53:29;;;;;;;1;1;;;;;;;26.19;38.66406;1005.076;;;;
2019/06/02 03:55:54;;;;;;;0.9;0.9;;;;;;;26.19;38.67676;1005.083;;;;
2019/06/02 03:58:19;;;;;;;0.9;0.9;;;;;;;26.2;38.66406;1005.097;;;;
2019/06/02 04:02:27;;;;;;;1;1;;;;;;;26.2;38.64063;1005.075;;;;
2019/06/02 04:05:10;;;;;;;0.8;0.8;;;;;;;26.21;38.61816;1005.082;;;;
2019/06/02 04:07:36;;;;;;;0.9;0.9;;;;;;;26.21;38.59375;1005.087;;;;
2019/06/02 04:10:01;;;;;;;0.8;0.8;;;;;;;26.22;38.58301;1005.094;;;;
2019/06/02 04:12:26;;;;;;;1.1;1.1;;;;;;;26.23;38.57031;1005.032;;;;
2019/06/02 04:14:51;;;;;;;0.9;0.9;;;;;;;26.23;38.57129;1005.016;;;;
2019/06/02 04:17:17;;;;;;;0.8;0.8;;;;;;;26.23;38.53613;1005.002;;;;
2019/06/02 04:19:42;;;;;;;0.8;0.8;;;;;;;26.24;38.53711;1004.99;;;;
2019/06/02 04:22:07;;;;;;;1.4;1;;;;;;;26.24;38.52441;1004.963;;;;
2019/06/02 04:24:32;;;;;;;0.9;0.9;;;;;;;26.26;38.50098;1004.974;;;;
2019/06/02 04:26:57;;;;;;;0.9;0.9;;;;;;;26.26;38.50195;1004.989;;;;
2019/06/02 04:29:28;;;;;;;1;1;;;;;;;26.27;38.4668;1004.973;;;;
2019/06/02 04:32:02;;;;;;;1;1;;;;;;;26.27;38.45508;1005.007;;;;
2019/06/02 04:34:27;;;;;;;1;1;;;;;;;26.29;38.43359;1005.027;;;;
2019/06/02 04:37:12;;;;;;;0.9;0.9;;;;;;;26.31;38.39746;1005.023;;;;
2019/06/02 04:39:55;;;;;;;0.9;0.9;;;;;;;26.36;38.28223;1005.053;;;;
2019/06/02 04:42:20;;;;;;;0.9;0.9;;;;;;;26.48;38.0752;1005.053;;;;
2019/06/02 04:44:45;;;;;;;1;1;;;;;;;26.63;37.76367;1005.07;;;;
2019/06/02 04:47:11;;;;;;;1;1;;;;;;;26.78;37.46387;1005.066;;;;
2019/06/02 04:49:36;;;;;;;1;0.9;;;;;;;26.89;37.21973;1005.075;;;;
2019/06/02 04:52:02;;;;;;;1;1;;;;;;;26.99;37;1005.029;;;;
2019/06/02 04:54:27;;;;;;;1;1;;;;;;;27.08;36.8252;1005.002;;;;
2019/06/02 04:56:52;;;;;;;1.2;1.1;;;;;;;27.15;36.69922;1005.026;;;;
2019/06/02 04:59:18;;;;;;;1.1;1;;;;;;;27.25;36.52734;1005.033;;;;
2019/06/02 05:01:43;;;;;;;0.9;0.9;;;;;;;27.35;36.3418;1005.03;;;;
2019/06/02 05:04:08;;;;;;;1.2;1.1;;;;;;;27.42;36.19141;1004.989;;;;
2019/06/02 05:06:36;;;;;;;1.1;1.1;;;;;;;27.51;36.07715;1005.017;;;;
2019/06/02 05:09:01;;;;;;;1.6;1.2;;;;;;;27.57;35.9502;1005.022;;;;
2019/06/02 05:11:26;;;;;;;1;1;;;;;;;27.61;35.86816;1005.011;;;;
2019/06/02 05:13:52;;;;;;;0.9;0.9;;;;;;;27.68;35.72949;1005.034;;;;
2019/06/02 05:16:17;;;;;;;1;1;;;;;;;27.76;35.61621;1005.041;;;;
2019/06/02 05:18:42;;;;;;;1.3;1.2;;;;;;;27.83;35.50098;1005.047;;;;
2019/06/02 05:21:07;;;;;;;1.1;1;;;;;;;27.89;35.38477;1005.03;;;;
2019/06/02 05:23:33;;;;;;;0.9;0.9;;;;;;;27.95;35.26855;1004.985;;;;
2019/06/02 05:25:58;;;;;;;0.7;0.7;;;;;;;28;35.2002;1005.026;;;;
2019/06/02 05:28:24;;;;;;;0.8;0.8;;;;;;;28.07;35.07227;1005.07;;;;
2019/06/02 05:30:49;;;;;;;0.9;0.9;;;;;;;28.11;34.99121;1005.067;;;;
2019/06/02 05:33:15;;;;;;;0.8;0.8;;;;;;;28.17;34.88672;1005.065;;;;
2019/06/02 05:35:42;;;;;;;0.7;0.6;;;;;;;28.19;34.86426;1005.034;;;;
2019/06/02 05:38:16;;;;;;;0.8;0.7;;;;;;;28.22;34.83105;1005;;;;
2019/06/02 05:40:46;;;;;;;0.6;0.6;;;;;;;28.27;34.75098;1005.023;;;;
2019/06/02 05:43:11;;;;;;;0.7;0.7;;;;;;;28.31;34.65625;1005.01;;;;
2019/06/02 05:45:36;;;;;;;0.8;0.8;;;;;;;28.36;34.6123;1005.049;;;;
2019/06/02 05:48:15;;;;;;;0.8;0.7;;;;;;;28.41;34.53125;1005.102;;;;
2019/06/02 05:50:46;;;;;;;1.1;1;;;;;;;28.44;34.46191;1005.133;;;;
2019/06/02 05:53:12;;;;;;;1;1;;;;;;;28.48;34.42773;1005.147;;;;
2019/06/02 05:55:37;;;;;;;1;0.9;;;;;;;28.5;34.42969;1005.157;;;;
2019/06/02 05:58:04;;;;;;;1.2;0.9;;;;;;;28.52;34.35938;1005.16;;;;
2019/06/02 06:00:29;;;;;;;0.6;0.6;;;;;;;28.54;34.36035;1005.153;;;;
2019/06/02 06:02:54;;;;;;;1;0.7;;;;;;;28.56;34.3252;1005.182;;;;
2019/06/02 06:05:19;;;;;;;0.8;0.6;;;;;;;28.57;34.29004;1005.147;;;;
2019/06/02 06:07:45;;;;;;;0.8;0.8;;;;;;;28.58;34.2793;1005.115;;;;
2019/06/02 06:10:10;;;;;;;0.7;0.7;;;;;;;28.58;34.30371;1005.145;;;;
2019/06/02 06:12:35;;;;;;;0.9;0.9;;;;;;;28.58;34.31543;1005.136;;;;
2019/06/02 06:15:00;;;;;;;0.8;0.8;;;;;;;28.59;34.31641;1005.123;;;;
2019/06/02 06:17:25;;;;;;;0.8;0.8;;;;;;;28.59;34.33984;1005.106;;;;
2019/06/02 06:19:50;;;;;;;1;1;;;;;;;28.59;34.35254;1005.091;;;;
2019/06/02 06:22:15;;;;;;;1.1;1;;;;;;;28.6;34.36426;1005.078;;;;
2019/06/02 06:24:43;;;;;;;0.9;0.9;;;;;;;28.59;34.37695;1005.102;;;;
2019/06/02 06:27:08;;;;;;;0.9;0.9;;;;;;;28.58;34.41211;1005.066;;;;
2019/06/02 06:29:33;;;;;;;1.2;0.9;;;;;;;28.59;34.43652;1005.078;;;;
2019/06/02 06:31:58;;;;;;;0.8;0.8;;;;;;;28.59;34.46094;1005.069;;;;
2019/06/02 06:34:23;;;;;;;0.8;0.8;;;;;;;28.6;34.46191;1005.085;;;;
2019/06/02 06:36:48;;;;;;;0.7;0.7;;;;;;;28.6;34.48633;1005.066;;;;
2019/06/02 06:39:13;;;;;;;0.7;0.7;;;;;;;28.62;34.47559;1005.047;;;;
2019/06/02 06:41:38;;;;;;;0.9;0.9;;;;;;;28.61;34.47461;1005.084;;;;
2019/06/02 06:44:22;;;;;;;0.7;0.7;;;;;;;28.61;34.48633;1005.056;;;;
2019/06/02 06:46:56;;;;;;;0.8;0.8;;;;;;;28.58;34.54395;1005.018;;;;
2019/06/02 06:49:21;;;;;;;0.9;0.9;;;;;;;28.54;34.63867;1005.041;;;;
2019/06/02 06:51:47;;;;;;;0.9;0.9;;;;;;;28.52;34.68555;1005.049;;;;
2019/06/02 06:54:12;;;;;;;1.1;0.8;;;;;;;28.5;34.75586;1005.028;;;;
2019/06/02 06:56:37;;;;;;;0.6;0.6;;;;;;;28.53;34.72168;1005.062;;;;
2019/06/02 06:59:02;;;;;;;1.6;0.9;;;;;;;28.53;34.74707;1005.055;;;;
2019/06/02 07:01:30;;;;;;;1.4;1;;;;;;;29.23;33.45703;1005.095;;;;
2019/06/02 07:03:56;;;;;;;0.8;0.8;;;;;;;29.48;32.9541;1005.12;;;;
2019/06/02 07:06:33;;;;;;;0.8;0.8;;;;;;;28.92;34.00195;1005.138;;;;
2019/06/02 07:09:03;;;;;;;0.8;0.8;;;;;;;28.77;34.31738;1005.056;;;;
2019/06/02 07:11:27;;;;;;;0.8;0.8;;;;;;;29.54;32.95996;1005.048;;;;
2019/06/02 07:13:52;;;;;;;1.2;1;;;;;;;31.46;29.56055;1004.998;;;;
2019/06/02 07:16:17;;;;;;;1.1;0.8;;;;;;;30.64;30.76953;1005.015;;;;
2019/06/02 07:18:42;;;;;;;1.3;0.8;;;;;;;29.57;32.71973;1005.03;;;;
2019/06/02 07:21:14;;;;;;;0.8;0.8;;;;;;;30.64;31.02441;1004.958;;;;
2019/06/02 07:23:43;;;;;;;1.4;0.9;;;;;;;30.84;30.46777;1004.975;;;;
2019/06/02 07:26:17;;;;;;;0.7;0.6;;;;;;;29.69;32.52246;1004.996;;;;
2019/06/02 07:28:47;;;;;;;1;0.5;;;;;;;29.35;33.24805;1005.005;;;;
2019/06/02 07:31:12;;;;;;;0.9;0.5;;;;;;;29.56;32.89941;1005.026;;;;
2019/06/02 07:33:40;;;;;;;0.9;0.5;;;;;;;29.28;33.41309;1004.961;;;;
2019/06/02 07:36:05;;;;;;;0.5;0.5;;;;;;;29.4;33.27637;1004.99;;;;
2019/06/02 07:38:30;;;;;;;0.5;0.3;;;;;;;32.25;28.56445;1004.911;;;;
2019/06/02 07:40:55;;;;;;;0.5;0.5;;;;;;;35.39;23.84375;1004.915;;;;
2019/06/02 07:43:20;;;;;;;0.5;0.5;;;;;;;36.51;22.2666;1004.922;;;;
2019/06/02 07:45:45;;;;;;;0.4;0.3;;;;;;;37.26;21.31836;1004.956;;;;
2019/06/02 07:48:10;;;;;;;0.5;0.5;;;;;;;37.86;20.59375;1004.978;;;;
2019/06/02 07:50:35;;;;;;;1.1;0.5;;;;;;;38.26;20.10547;1004.921;;;;
2019/06/02 07:53:01;;;;;;;0.7;0.5;;;;;;;38.8;19.47461;1004.899;;;;
2019/06/02 07:55:26;;;;;;;1;0.5;;;;;;;39.26;18.9375;1004.919;;;;
2019/06/02 07:58:01;;;;;;;0.5;0.4;;;;;;;39.67;18.4834;1004.89;;;;
2019/06/02 08:00:26;;;;;;;0.6;0.4;;;;;;;40.11;18.03027;1004.906;;;;
2019/06/02 08:02:51;;;;;;;0.5;0.4;;;;;;;40.31;17.81445;1004.862;;;;
2019/06/02 08:05:17;;;;;;;0.5;0.5;;;;;;;40.58;17.50293;1004.835;;;;
2019/06/02 08:07:42;;;;;;;1;0.5;;;;;;;40.72;17.35938;1004.812;;;;
2019/06/02 08:10:07;;;;;;;0.7;0.7;;;;;;;40.95;17.15723;1004.796;;;;
2019/06/02 08:12:32;;;;;;;0.4;0.4;;;;;;;41.01;17.07129;1004.784;;;;
2019/06/02 08:14:57;;;;;;;0.9;0.6;;;;;;;40.65;17.43066;1004.801;;;;
2019/06/02 08:17:22;;;;;;;0.9;0.7;;;;;;;38.4;19.72949;1004.712;;;;
2019/06/02 08:19:47;;;;;;;0.8;0.8;;;;;;;35.1;23.90234;1004.756;;;;
2019/06/02 08:22:12;;;;;;;1.2;0.8;;;;;;;33.9;25.69824;1004.738;;;;
2019/06/02 08:24:38;;;;;;;1;0.7;;;;;;;33.21;26.75781;1004.751;;;;
2019/06/02 08:27:03;;;;;;;0.7;0.7;;;;;;;32.71;27.59375;1004.749;;;;
2019/06/02 08:29:28;;;;;;;0.7;0.7;;;;;;;32.36;28.14453;1004.666;;;;
2019/06/02 08:31:53;;;;;;;1;0.7;;;;;;;31.99;28.7793;1004.682;;;;
2019/06/02 08:34:19;;;;;;;0.8;0.8;;;;;;;31.72;29.24902;1004.673;;;;
2019/06/02 08:36:45;;;;;;;0.6;0.6;;;;;;;31.47;29.70801;1004.673;;;;
2019/06/02 08:39:10;;;;;;;0.6;0.6;;;;;;;31.23;30.12988;1004.586;;;;
2019/06/02 08:41:43;;;;;;;0.7;0.6;;;;;;;31.06;30.48242;1004.579;;;;
2019/06/02 08:44:08;;;;;;;0.8;0.7;;;;;;;30.85;30.86914;1004.563;;;;
2019/06/02 08:46:33;;;;;;;0.7;0.7;;;;;;;30.7;31.1377;1004.534;;;;
2019/06/02 08:48:58;;;;;;;0.8;0.7;;;;;;;30.54;31.43066;1004.499;;;;
2019/06/02 08:51:23;;;;;;;0.9;0.9;;;;;;;30.42;31.65234;1004.521;;;;
2019/06/02 08:54:00;;;;;;;0.7;0.7;;;;;;;30.29;31.89844;1004.518;;;;
2019/06/02 08:56:25;;;;;;;0.7;0.7;;;;;;;30.17;32.13184;1004.494;;;;
2019/06/02 08:58:58;;;;;;;0.7;0.7;;;;;;;30.06;32.36719;1004.502;;;;
2019/06/02 09:01:23;;;;;;;0.7;0.7;;;;;;;29.94;32.58789;1004.537;;;;
2019/06/02 09:03:48;;;;;;;0.9;0.9;;;;;;;29.87;32.72949;1004.514;;;;
2019/06/02 09:06:13;;;;;;;0.7;0.7;;;;;;;29.79;32.9043;1004.494;;;;
2019/06/02 09:08:39;;;;;;;1;0.8;;;;;;;29.71;33.05664;1004.482;;;;
2019/06/02 09:11:04;;;;;;;1.4;0.9;;;;;;;29.63;33.19531;1004.437;;;;
2019/06/02 09:13:36;;;;;;;1;0.8;;;;;;;29.56;33.33594;1004.415;;;;
2019/06/02 09:16:01;;;;;;;0.9;0.9;;;;;;;29.5;33.47754;1004.378;;;;
2019/06/02 09:18:27;;;;;;;1.4;1;;;;;;;29.45;33.58301;1004.357;;;;
2019/06/02 09:20:52;;;;;;;0.7;0.7;;;;;;;29.39;33.71094;1004.341;;;;
2019/06/02 09:23:17;;;;;;;0.8;0.8;;;;;;;29.36;33.80566;1004.36;;;;
2019/06/02 09:25:42;;;;;;;1;0.8;;;;;;;29.3;33.92188;1004.312;;;;
2019/06/02 09:28:07;;;;;;;0.9;0.9;;;;;;;29.26;34.01563;1004.358;;;;
2019/06/02 09:30:32;;;;;;;0.8;0.8;;;;;;;29.22;34.09766;1004.367;;;;
2019/06/02 09:32:57;;;;;;;1.3;0.8;;;;;;;29.18;34.16699;1004.351;;;;
2019/06/02 09:35:28;;;;;;;0.8;0.8;;;;;;;29.13;34.26074;1004.356;;;;
2019/06/02 09:37:53;;;;;;;0.9;0.9;;;;;;;29.1;34.33008;1004.337;;;;
2019/06/02 09:40:18;;;;;;;1;0.9;;;;;;;29.07;34.40039;1004.313;;;;
2019/06/02 09:42:52;;;;;;;1.1;1.1;;;;;;;29.03;34.44629;1004.291;;;;
2019/06/02 09:45:17;;;;;;;0.8;0.8;;;;;;;29;34.52832;1004.25;;;;
2019/06/02 09:48:02;;;;;;;0.9;0.9;;;;;;;28.97;34.5625;1004.228;;;;
2019/06/02 09:50:29;;;;;;;0.9;0.9;;;;;;;28.93;34.65527;1004.197;;;;
2019/06/02 09:52:54;;;;;;;0.9;0.9;;;;;;;28.9;34.69141;1004.19;;;;
2019/06/02 09:55:19;;;;;;;1;0.9;;;;;;;28.87;34.74902;1004.18;;;;
2019/06/02 09:57:56;;;;;;;0.9;0.9;;;;;;;28.85;34.79492;1004.142;;;;
2019/06/02 10:00:28;;;;;;;0.9;0.9;;;;;;;28.83;34.83008;1004.139;;;;
2019/06/02 10:03:13;;;;;;;1;1;;;;;;;28.8;34.87598;1004.087;;;;
2019/06/02 10:05:39;;;;;;;0.8;0.8;;;;;;;28.77;34.93359;1004.075;;;;
2019/06/02 10:08:03;;;;;;;1;0.9;;;;;;;28.74;34.98047;1004.08;;;;
2019/06/02 10:10:29;;;;;;;0.9;0.9;;;;;;;28.72;35.01465;1004.034;;;;
2019/06/02 10:12:56;;;;;;;0.7;0.7;;;;;;;28.7;35.03711;1004.033;;;;
2019/06/02 10:15:26;;;;;;;0.7;0.7;;;;;;;28.68;35.07227;1003.985;;;;
2019/06/02 10:18:08;;;;;;;0.7;0.7;;;;;;;28.64;35.10547;1003.975;;;;
2019/06/02 10:20:33;;;;;;;0.6;0.6;;;;;;;28.63;35.13965;1003.976;;;;
2019/06/02 10:23:00;;;;;;;0.6;0.6;;;;;;;28.6;35.18652;1003.912;;;;
2019/06/02 10:25:25;;;;;;;0.8;0.7;;;;;;;28.57;35.23242;1003.894;;;;
2019/06/02 10:27:50;;;;;;;0.8;0.8;;;;;;;28.56;35.26758;1003.91;;;;
2019/06/02 10:30:15;;;;;;;0.8;0.8;;;;;;;28.54;35.29102;1003.88;;;;
2019/06/02 10:32:40;;;;;;;0.8;0.8;;;;;;;28.51;35.34863;1003.871;;;;
2019/06/02 10:35:06;;;;;;;0.8;0.8;;;;;;;28.5;35.38379;1003.853;;;;
2019/06/02 10:37:50;;;;;;;0.8;0.8;;;;;;;28.47;35.39355;1003.826;;;;
2019/06/02 10:40:18;;;;;;;0.8;0.8;;;;;;;28.46;35.40527;1003.818;;;;
2019/06/02 10:42:53;;;;;;;0.9;0.9;;;;;;;28.44;35.45215;1003.778;;;;
2019/06/02 10:45:18;;;;;;;0.8;0.8;;;;;;;28.41;35.46191;1003.747;;;;
2019/06/02 10:47:43;;;;;;;0.8;0.7;;;;;;;28.4;35.50977;1003.726;;;;
2019/06/02 10:50:08;;;;;;;1;0.9;;;;;;;28.39;35.51953;1003.691;;;;
2019/06/02 10:52:33;;;;;;;1;1;;;;;;;28.37;35.51855;1003.67;;;;
2019/06/02 10:55:01;;;;;;;0.8;0.8;;;;;;;28.35;35.54199;1003.642;;;;
2019/06/02 10:57:26;;;;;;;0.7;0.7;;;;;;;28.34;35.57715;1003.615;;;;
2019/06/02 10:59:51;;;;;;;1;0.9;;;;;;;28.32;35.59961;1003.559;;;;
2019/06/02 11:02:16;;;;;;;0.9;0.9;;;;;;;28.32;35.61133;1003.568;;;;
2019/06/02 11:04:41;;;;;;;0.9;0.9;;;;;;;28.3;35.61035;1003.525;;;;
2019/06/02 11:07:06;;;;;;;1;0.8;;;;;;;28.29;35.62207;1003.496;;;;
2019/06/02 11:09:31;;;;;;;0.8;0.8;;;;;;;28.28;35.62109;1003.458;;;;
2019/06/02 11:11:56;;;;;;;0.6;0.6;;;;;;;28.28;35.63184;1003.44;;;;
2019/06/02 11:14:21;;;;;;;1;1;;;;;;;28.27;35.63086;1003.409;;;;
2019/06/02 11:16:46;;;;;;;1.1;0.7;;;;;;;28.26;35.63086;1003.419;;;;
2019/06/02 11:19:11;;;;;;;0.9;0.7;;;;;;;28.25;35.6543;1003.356;;;;
2019/06/02 11:21:38;;;;;;;1;0.8;;;;;;;28.24;35.67773;1003.336;;;;
2019/06/02 11:24:03;;;;;;;0.7;0.7;;;;;;;28.24;35.66504;1003.295;;;;
2019/06/02 11:26:28;;;;;;;0.8;0.8;;;;;;;28.23;35.67578;1003.273;;;;
2019/06/02 11:28:54;;;;;;;0.8;0.8;;;;;;;28.22;35.67578;1003.214;;;;
2019/06/02 11:31:19;;;;;;;0.7;0.7;;;;;;;28.21;35.71191;1003.19;;;;
2019/06/02 11:34:00;;;;;;;0.9;0.9;;;;;;;28.2;35.71094;1003.158;;;;
2019/06/02 11:36:31;;;;;;;0.7;0.7;;;;;;;28.2;35.69824;1003.15;;;;
2019/06/02 11:38:56;;;;;;;0.6;0.6;;;;;;;28.19;35.74609;1003.08;;;;
2019/06/02 11:41:21;;;;;;;0.7;0.7;;;;;;;28.19;35.73438;1003.08;;;;
2019/06/02 11:43:46;;;;;;;0.8;0.8;;;;;;;28.19;35.73438;1003.025;;;;
2019/06/02 11:46:11;;;;;;;1.3;0.9;;;;;;;28.19;35.7334;1003.004;;;;
2019/06/02 11:48:37;;;;;;;0.8;0.8;;;;;;;28.18;35.7334;1002.956;;;;
2019/06/02 11:51:17;;;;;;;0.8;0.8;;;;;;;28.18;35.74512;1002.956;;;;
2019/06/02 11:53:46;;;;;;;0.7;0.7;;;;;;;28.17;35.74414;1002.879;;;;
2019/06/02 11:56:27;;;;;;;1;0.9;;;;;;;28.16;35.73242;1002.854;;;;
2019/06/02 11:58:52;;;;;;;0.7;0.7;;;;;;;28.15;35.73145;1002.793;;;;
2019/06/02 12:01:17;;;;;;;0.7;0.7;;;;;;;28.15;35.73145;1002.778;;;;
2019/06/02 12:03:42;;;;;;;0.6;0.6;;;;;;;28.15;35.73047;1002.722;;;;
2019/06/02 12:06:08;;;;;;;0.8;0.8;;;;;;;28.14;35.70605;1002.722;;;;
2019/06/02 12:08:33;;;;;;;0.8;0.8;;;;;;;28.13;35.69434;1002.682;;;;
2019/06/02 12:10:58;;;;;;;0.9;0.9;;;;;;;28.12;35.7041;1002.637;;;;
2019/06/02 12:13:23;;;;;;;0.6;0.6;;;;;;;28.13;35.66895;1002.632;;;;
2019/06/02 12:15:48;;;;;;;0.7;0.7;;;;;;;28.12;35.69238;1002.622;;;;
2019/06/02 12:18:13;;;;;;;0.7;0.7;;;;;;;28.12;35.71582;1002.592;;;;
2019/06/02 12:20:38;;;;;;;0.9;0.8;;;;;;;28.11;35.7041;1002.592;;;;
2019/06/02 12:23:03;;;;;;;0.7;0.7;;;;;;;28.11;35.69141;1002.607;;;;
2019/06/02 12:25:28;;;;;;;0.8;0.8;;;;;;;28.11;35.67969;1002.625;;;;
2019/06/02 12:27:54;;;;;;;0.6;0.6;;;;;;;28.11;35.66699;1002.601;;;;
2019/06/02 12:30:20;;;;;;;0.7;0.7;;;;;;;28.1;35.69043;1002.554;;;;
2019/06/02 12:32:45;;;;;;;0.7;0.7;;;;;;;28.1;35.67871;1002.53;;;;
2019/06/02 12:35:13;;;;;;;0.6;0.6;;;;;;;28.09;35.73828;1002.517;;;;
2019/06/02 12:37:40;;;;;;;1;0.7;;;;;;;28.1;35.70215;1002.537;;;;
2019/06/02 12:40:11;;;;;;;0.7;0.7;;;;;;;28.09;35.70215;1002.548;;;;
2019/06/02 12:42:37;;;;;;;0.9;0.6;;;;;;;28.08;35.73828;1002.526;;;;
2019/06/02 12:45:03;;;;;;;0.8;0.8;;;;;;;28.07;35.71191;1002.524;;;;
2019/06/02 12:47:29;;;;;;;0.5;0.5;;;;;;;28.07;35.72461;1002.461;;;;
2019/06/02 12:49:54;;;;;;;0.4;0.4;;;;;;;28.07;35.76074;1002.399;;;;
2019/06/02 12:52:19;;;;;;;0.8;0.7;;;;;;;28.07;35.73535;1002.403;;;;
2019/06/02 12:54:50;;;;;;;0.5;0.5;;;;;;;28.06;35.73535;1002.425;;;;
2019/06/02 12:57:28;;;;;;;0.8;0.5;;;;;;;28.07;35.73633;1002.425;;;;
2019/06/02 13:00:01;;;;;;;1;0.6;;;;;;;28.07;35.74902;1002.382;;;;
2019/06/02 13:02:26;;;;;;;0.6;0.6;;;;;;;28.07;35.73535;1002.368;;;;
2019/06/02 13:04:54;;;;;;;0.5;0.5;;;;;;;28.06;35.74805;1002.256;;;;
2019/06/02 13:07:19;;;;;;;0.6;0.6;;;;;;;28.05;35.75879;1002.267;;;;
2019/06/02 13:09:44;;;;;;;0.7;0.6;;;;;;;28.06;35.75977;1002.24;;;;
2019/06/02 13:12:10;;;;;;;0.8;0.8;;;;;;;28.06;35.78418;1002.195;;;;
2019/06/02 13:14:35;;;;;;;0.6;0.6;;;;;;;28.06;35.74805;1002.194;;;;
2019/06/02 13:17:00;;;;;;;0.8;0.8;;;;;;;28.05;35.73438;1002.085;;;;
2019/06/02 13:19:25;;;;;;;0.7;0.7;;;;;;;28.04;35.76953;1002.059;;;;
2019/06/02 13:21:50;;;;;;;0.7;0.7;;;;;;;28.04;35.74609;1002.057;;;;
2019/06/02 13:24:15;;;;;;;0.7;0.7;;;;;;;28.04;35.74609;1002.059;;;;
2019/06/02 13:26:41;;;;;;;0.5;0.5;;;;;;;28.04;35.79395;1002.001;;;;
2019/06/02 13:29:06;;;;;;;0.7;0.6;;;;;;;28.04;35.79395;1001.971;;;;
2019/06/02 13:31:31;;;;;;;0.9;0.7;;;;;;;28.03;35.79395;1001.949;;;;
2019/06/02 13:33:56;;;;;;;0.7;0.7;;;;;;;28.03;35.74609;1001.914;;;;
2019/06/02 13:36:21;;;;;;;0.6;0.6;;;;;;;28.03;35.76953;1001.864;;;;
2019/06/02 13:38:49;;;;;;;1.1;0.7;;;;;;;28.01;35.78027;1001.846;;;;
2019/06/02 13:41:17;;;;;;;0.6;0.6;;;;;;;28.03;35.80566;1001.835;;;;
2019/06/02 13:43:42;;;;;;;0.7;0.7;;;;;;;28.01;35.80469;1001.81;;;;
2019/06/02 13:46:07;;;;;;;0.7;0.7;;;;;;;28.01;35.80469;1001.778;;;;
2019/06/02 13:48:32;;;;;;;0.6;0.6;;;;;;;28.01;35.81641;1001.792;;;;
2019/06/02 13:51:03;;;;;;;0.7;0.7;;;;;;;28.01;35.80371;1001.745;;;;
2019/06/02 13:53:34;;;;;;;0.7;0.7;;;;;;;28.01;35.81641;1001.713;;;;
2019/06/02 13:55:59;;;;;;;0.7;0.7;;;;;;;28.02;35.79297;1001.702;;;;
2019/06/02 13:58:24;;;;;;;0.7;0.7;;;;;;;28.02;35.76855;1001.662;;;;
2019/06/02 14:00:49;;;;;;;0.8;0.8;;;;;;;28.01;35.79199;1001.722;;;;
2019/06/02 14:03:14;;;;;;;0.7;0.7;;;;;;;28.02;35.78027;1001.654;;;;
2019/06/02 14:05:40;;;;;;;0.7;0.7;;;;;;;28.01;35.79199;1001.601;;;;
2019/06/02 14:08:05;;;;;;;0.5;0.5;;;;;;;28.01;35.79297;1001.617;;;;
2019/06/02 14:10:30;;;;;;;0.7;0.6;;;;;;;28.01;35.79199;1001.597;;;;
2019/06/02 14:12:55;;;;;;;0.6;0.6;;;;;;;28;35.78027;1001.539;;;;
2019/06/02 14:15:20;;;;;;;0.7;0.6;;;;;;;28.01;35.78027;1001.506;;;;
2019/06/02 14:17:45;;;;;;;0.6;0.6;;;;;;;28.02;35.74414;1001.531;;;;
2019/06/02 14:20:10;;;;;;;0.6;0.6;;;;;;;28;35.75586;1001.487;;;;
2019/06/02 14:22:35;;;;;;;0.7;0.7;;;;;;;28.01;35.78027;1001.5;;;;
2019/06/02 14:25:10;;;;;;;0.9;0.6;;;;;;;28;35.79199;1001.458;;;;
2019/06/02 14:27:35;;;;;;;0.8;0.8;;;;;;;28;35.80371;1001.479;;;;
2019/06/02 14:30:03;;;;;;;0.6;0.6;;;;;;;28;35.80371;1001.428;;;;